METAR AND TAF INFORMATION
METAR FOR YARG
ADDS - METARS form results

(1430 UTC 18 July 2018)
Data provider http://aviationweather.gov/adds/metars/
 
METAR text: YARG 181400Z AUTO 11006KT 9999 // NCD 19/M02 Q1015
Conditions at: YARG (ARGYLE AERO , AU) observed 1400 UTC 18 July 2018
Temperature: 19.0°C (66°F)
Dewpoint: -2.0°C (28°F) [RH = 24%]
Pressure (altimeter): 29.97 inches Hg (1015.0 mb)
Winds: from the ESE (110 degrees) at 7 MPH (6 knots; 3.1 m/s)
Visibility: 6 or more miles (10+ km)
Ceiling: at least 12,000 feet AGL
Clouds: sky clear below 12,000 feet AGL
Weather: no significant weather observed at this time

 AIRPORT MAP

 RUNWAY INFORMATION
Runway 01 Runway length 7546 ft Runway width 98 ft
Runway elevation 522 ft Runway displaced threshold 0 ft Runway heading 21
Runway 19 Runway length 7546 ft Runway width 98 ft
Runway elevation 505 ft Runway displaced threshold 0 ft Runway heading 201

 AIRPORT FREQUENCIES
Type CTAF Name CTAF Frequency 127.3 MHZ
Type FSS Name BRISBANE C Frequency 122.4 MHZ

 AIRPORT NEAR NAVIGATION AIDS
Type VOR-DME Name Argyle Frequency 113900 KHZ